Time;durP1;ratioP1;P1;durP2;ratioP2;P2;SDS_P1;SDS_P2;PMS_P1;PMS_P2;Temp;Humidity;BMP_temperature;BMP_pressure;BME280_temperature;BME280_humidity;BME280_pressure;Samples;Min_cycle;Max_cycle;Signal;HPM_P1;HPM_P2
2023/02/07 00:00:50;;;;;;;96.33;38.70;;;-4.00;99.90;;;;;;4983509;28;20668;-72
2023/02/07 00:03:17;;;;;;;100.07;38.83;;;-4.00;99.90;;;;;;4972510;28;20287;-72
2023/02/07 00:05:44;;;;;;;93.07;37.17;;;-3.90;99.90;;;;;;4951721;29;20251;-68
2023/02/07 00:08:11;;;;;;;98.03;37.90;;;-4.00;99.90;;;;;;4952424;29;20222;-70
2023/02/07 00:10:38;;;;;;;96.83;37.33;;;-4.00;99.90;;;;;;4951924;28;20198;-70
2023/02/07 00:13:04;;;;;;;102.97;39.23;;;-4.00;99.90;;;;;;4964630;28;20228;-68
2023/02/07 00:15:32;;;;;;;95.77;36.27;;;-4.00;99.90;;;;;;4964982;28;20212;-75
2023/02/07 00:17:59;;;;;;;96.30;36.97;;;-3.90;99.90;;;;;;4950202;28;20683;-73
2023/02/07 00:20:26;;;;;;;93.30;36.53;;;-3.80;99.90;;;;;;4951598;28;20226;-75
2023/02/07 00:22:54;;;;;;;89.83;35.83;;;-4.00;99.90;;;;;;4949501;28;20210;-74
2023/02/07 00:25:21;;;;;;;95.10;35.83;;;-4.00;99.90;;;;;;4944409;29;20583;-72
2023/02/07 00:27:48;;;;;;;95.97;35.93;;;-3.90;99.90;;;;;;4946408;28;20240;-73
2023/02/07 00:30:15;;;;;;;91.00;36.63;;;-3.80;99.90;;;;;;4936131;29;20673;-67
2023/02/07 00:32:42;;;;;;;96.03;36.07;;;-3.70;99.90;;;;;;4933816;29;20310;-68
2023/02/07 00:35:09;;;;;;;86.27;34.47;;;-3.60;99.90;;;;;;4948109;28;20203;-70
2023/02/07 00:37:36;;;;;;;87.30;34.93;;;-3.60;99.90;;;;;;4953050;28;20324;-68
2023/02/07 00:40:03;;;;;;;82.63;34.97;;;-3.60;99.90;;;;;;4952475;29;20264;-69
2023/02/07 00:42:30;;;;;;;89.60;36.07;;;-3.70;99.90;;;;;;4964032;28;20531;-69
2023/02/07 00:44:57;;;;;;;81.27;34.83;;;-3.80;99.90;;;;;;4968481;28;20204;-69
2023/02/07 00:47:24;;;;;;;92.40;36.57;;;-3.80;99.90;;;;;;4968496;28;20826;-72
2023/02/07 00:49:51;;;;;;;90.87;34.87;;;-3.70;99.90;;;;;;4968034;28;20514;-70
2023/02/07 00:52:18;;;;;;;87.10;35.40;;;-3.70;99.90;;;;;;4953007;28;20211;-72
2023/02/07 00:54:44;;;;;;;95.03;35.83;;;-3.70;99.90;;;;;;4949813;28;20237;-71
2023/02/07 00:57:11;;;;;;;90.10;36.03;;;-3.60;99.90;;;;;;4960556;28;20282;-71
2023/02/07 00:59:38;;;;;;;81.27;34.07;;;-3.60;99.90;;;;;;4944735;29;20191;-73
2023/02/07 01:02:05;;;;;;;89.30;34.50;;;-3.60;99.90;;;;;;4944968;28;20206;-73
2023/02/07 01:04:32;;;;;;;84.73;35.07;;;-3.60;99.90;;;;;;4962923;28;20226;-73
2023/02/07 01:06:59;;;;;;;80.93;34.47;;;-3.40;99.90;;;;;;4948023;28;20982;-73
2023/02/07 01:09:26;;;;;;;86.87;34.40;;;-3.50;99.90;;;;;;4951980;28;20546;-72
2023/02/07 01:11:52;;;;;;;87.00;35.20;;;-3.40;99.90;;;;;;4952651;28;20215;-70
2023/02/07 01:14:19;;;;;;;84.27;34.33;;;-3.40;99.90;;;;;;4952327;29;20227;-69
2023/02/07 01:16:47;;;;;;;83.57;34.23;;;-3.40;99.90;;;;;;4968945;28;20206;-69
2023/02/07 01:19:14;;;;;;;91.37;36.03;;;-3.40;99.90;;;;;;4947104;28;20212;-65
2023/02/07 01:21:41;;;;;;;88.87;34.97;;;-3.40;99.90;;;;;;4965569;28;20189;-72
2023/02/07 01:24:09;;;;;;;81.37;33.80;;;-3.50;99.90;;;;;;4967382;28;20250;-71
2023/02/07 01:26:36;;;;;;;93.53;34.17;;;-3.50;99.90;;;;;;4953320;28;20188;-74
2023/02/07 01:29:04;;;;;;;84.10;34.00;;;-3.40;99.90;;;;;;4971214;28;20203;-74
2023/02/07 01:31:31;;;;;;;83.10;34.63;;;-3.50;99.90;;;;;;4954945;28;20206;-72
2023/02/07 01:33:59;;;;;;;84.47;36.07;;;-3.60;99.90;;;;;;4970898;28;20313;-71
2023/02/07 01:36:28;;;;;;;87.27;34.63;;;-3.60;99.90;;;;;;4956272;28;20281;-73
2023/02/07 01:38:55;;;;;;;81.90;33.97;;;-3.50;99.90;;;;;;4954720;28;20207;-72
2023/02/07 01:41:25;;;;;;;81.37;34.03;;;-3.30;99.90;;;;;;4956876;28;20273;-70
2023/02/07 01:44:06;;;;;;;84.70;33.70;;;-3.40;99.90;;;;;;4951288;28;20198;-71
2023/02/07 01:46:34;;;;;;;89.00;35.27;;;-3.30;99.90;;;;;;4955752;28;20200;-71
2023/02/07 01:49:06;;;;;;;90.67;33.67;;;-3.50;99.90;;;;;;4953153;28;20252;-73
2023/02/07 01:51:34;;;;;;;90.60;34.60;;;-3.50;99.90;;;;;;4953477;28;20199;-71
2023/02/07 01:54:05;;;;;;;82.63;34.07;;;-3.50;99.90;;;;;;4952214;29;20236;-74
2023/02/07 01:56:34;;;;;;;85.47;34.60;;;-3.30;99.90;;;;;;4956669;28;20203;-75
2023/02/07 01:59:04;;;;;;;80.47;32.67;;;-3.30;99.90;;;;;;4956282;28;20194;-70
2023/02/07 02:01:31;;;;;;;87.10;33.13;;;-3.30;99.90;;;;;;4963597;28;20732;-71
2023/02/07 02:04:00;;;;;;;84.37;33.13;;;-3.30;99.90;;;;;;4967572;28;20579;-69
2023/02/07 02:06:30;;;;;;;80.77;33.93;;;-3.10;99.90;;;;;;4975500;28;20228;-69
2023/02/07 02:09:00;;;;;;;81.53;33.63;;;-3.20;99.90;;;;;;4954749;28;20631;-69
2023/02/07 02:11:48;;;;;;;76.63;32.17;;;-3.10;99.90;;;;;;4955542;28;20206;-67
2023/02/07 02:14:41;;;;;;;76.07;31.97;;;-3.10;99.90;;;;;;4972872;28;20277;-70
2023/02/07 02:17:14;;;;;;;71.27;30.57;;;-3.00;99.90;;;;;;4979063;28;20214;-70
2023/02/07 02:19:50;;;;;;;77.63;32.67;;;-2.90;99.90;;;;;;4951570;28;20204;-71
2023/02/07 02:22:49;;;;;;;78.00;31.53;;;-2.80;99.90;;;;;;4958100;28;20603;-71
2023/02/07 02:25:34;;;;;;;74.43;30.60;;;-2.70;99.90;;;;;;4946596;28;20239;-72
2023/02/07 02:28:10;;;;;;;76.07;32.10;;;-2.70;99.90;;;;;;4988636;28;20227;-68
2023/02/07 02:31:01;;;;;;;78.70;31.67;;;-2.60;99.90;;;;;;4970579;28;20613;-65
2023/02/07 02:33:47;;;;;;;76.67;30.83;;;-2.60;99.90;;;;;;4955803;28;20213;-66
2023/02/07 02:36:44;;;;;;;76.30;31.50;;;-2.60;99.90;;;;;;4956715;28;20596;-71
2023/02/07 02:39:20;;;;;;;69.57;30.33;;;-2.70;99.90;;;;;;4988193;28;20206;-66
2023/02/07 02:42:13;;;;;;;79.07;32.10;;;-2.60;99.90;;;;;;4954704;28;20568;-65
2023/02/07 02:45:22;;;;;;;78.00;31.63;;;-2.60;99.90;;;;;;4954545;28;20224;-67
2023/02/07 02:47:50;;;;;;;69.60;30.87;;;-2.70;99.90;;;;;;4866570;29;20206;-63
2023/02/07 02:50:25;;;;;;;73.53;31.97;;;-2.60;99.90;;;;;;4867421;29;20228;-64
2023/02/07 02:52:52;;;;;;;78.87;32.27;;;-2.60;99.90;;;;;;4885214;29;20204;-65
2023/02/07 02:55:41;;;;;;;78.50;31.67;;;-2.60;99.90;;;;;;4853473;29;20206;-71
2023/02/07 02:58:13;;;;;;;70.40;31.03;;;-2.70;99.90;;;;;;4859072;29;20697;-73
2023/02/07 03:01:00;;;;;;;79.90;31.60;;;-2.80;99.90;;;;;;4859860;29;20205;-74
2023/02/07 03:03:33;;;;;;;73.17;31.47;;;-2.80;99.90;;;;;;4869862;29;20241;-74
2023/02/07 03:06:03;;;;;;;71.47;31.07;;;-2.90;99.90;;;;;;4862030;29;20628;-74
2023/02/07 03:08:43;;;;;;;78.20;32.33;;;-3.00;99.90;;;;;;4892562;29;20214;-68
2023/02/07 03:11:13;;;;;;;72.93;31.33;;;-2.90;99.90;;;;;;4877496;29;20329;-67
2023/02/07 03:13:48;;;;;;;76.13;31.73;;;-2.90;99.90;;;;;;4878844;29;20216;-66
2023/02/07 03:16:23;;;;;;;86.80;31.73;;;-2.80;99.90;;;;;;4880225;29;20603;-66
2023/02/07 03:19:21;;;;;;;76.90;31.73;;;-2.90;99.90;;;;;;4896280;29;20274;-66
2023/02/07 03:22:01;;;;;;;77.60;31.47;;;-2.80;99.90;;;;;;4890807;29;20213;-66
2023/02/07 03:24:32;;;;;;;73.80;30.30;;;-2.80;99.90;;;;;;4980599;28;20202;-73
2023/02/07 03:27:05;;;;;;;70.27;31.40;;;-2.70;99.90;;;;;;4957059;28;20217;-70
2023/02/07 03:29:36;;;;;;;72.80;31.47;;;-2.80;99.90;;;;;;4956963;28;20203;-74
2023/02/07 03:32:05;;;;;;;75.90;31.57;;;-2.80;99.90;;;;;;4955429;29;20230;-71
2023/02/07 03:34:42;;;;;;;69.70;29.87;;;-2.80;99.90;;;;;;4955765;28;20272;-74
2023/02/07 03:37:40;;;;;;;71.37;31.30;;;-2.60;99.90;;;;;;4952799;29;20198;-73
2023/02/07 03:40:09;;;;;;;64.67;28.13;;;-2.50;99.90;;;;;;4938239;29;20202;-73
2023/02/07 03:42:41;;;;;;;70.43;29.87;;;-2.40;99.90;;;;;;4955122;29;20219;-72
2023/02/07 03:45:13;;;;;;;69.37;29.70;;;-2.40;99.90;;;;;;4983490;28;20202;-74
2023/02/07 03:47:40;;;;;;;66.07;28.07;;;-2.50;99.90;;;;;;4989271;28;20204;-69
2023/02/07 03:50:07;;;;;;;66.67;28.10;;;-2.60;99.90;;;;;;4989443;28;20200;-72
2023/02/07 03:52:34;;;;;;;64.73;28.37;;;-2.50;99.90;;;;;;4973473;28;20208;-68
2023/02/07 03:55:01;;;;;;;68.90;29.63;;;-2.60;99.90;;;;;;4956418;28;20225;-65
2023/02/07 03:57:27;;;;;;;68.73;28.73;;;-2.50;99.90;;;;;;4956620;28;20205;-71
2023/02/07 03:59:54;;;;;;;69.70;28.50;;;-2.60;99.90;;;;;;4956644;28;20214;-72
2023/02/07 04:02:21;;;;;;;63.13;28.43;;;-2.60;99.90;;;;;;4957094;28;20194;-70
2023/02/07 04:04:48;;;;;;;65.23;28.20;;;-2.60;99.90;;;;;;4956273;28;20253;-71
2023/02/07 04:07:15;;;;;;;59.93;27.57;;;-2.60;99.90;;;;;;4956647;28;20245;-69
2023/02/07 04:09:42;;;;;;;64.10;28.17;;;-2.40;99.90;;;;;;4972071;28;20213;-70
2023/02/07 04:12:08;;;;;;;63.83;27.77;;;-2.40;99.90;;;;;;4956495;28;20605;-69
2023/02/07 04:14:35;;;;;;;64.47;27.67;;;-2.50;99.90;;;;;;4973481;28;20255;-72
2023/02/07 04:17:02;;;;;;;69.77;27.93;;;-2.50;99.90;;;;;;4973945;28;20645;-72
2023/02/07 04:19:29;;;;;;;62.20;26.83;;;-2.40;99.90;;;;;;4956903;28;20203;-72
2023/02/07 04:21:56;;;;;;;56.93;25.63;;;-2.40;99.90;;;;;;4974091;28;20241;-72
2023/02/07 04:24:22;;;;;;;65.43;26.33;;;-2.40;99.90;;;;;;4973686;28;20549;-74
2023/02/07 04:26:49;;;;;;;61.17;26.60;;;-2.30;99.90;;;;;;4956617;28;20212;-69
2023/02/07 04:29:16;;;;;;;57.17;24.67;;;-2.20;99.90;;;;;;4973383;28;20556;-73
2023/02/07 04:31:43;;;;;;;58.40;25.50;;;-2.30;99.90;;;;;;4988514;28;20186;-73
2023/02/07 04:34:11;;;;;;;58.10;24.20;;;-2.30;99.90;;;;;;4974034;28;20233;-70
2023/02/07 04:36:38;;;;;;;55.50;24.63;;;-2.20;99.90;;;;;;4973475;28;20242;-74
2023/02/07 04:39:05;;;;;;;57.37;24.33;;;-2.10;99.90;;;;;;4973404;28;20195;-73
2023/02/07 04:41:32;;;;;;;53.20;24.57;;;-2.20;99.90;;;;;;4956556;28;20206;-74
2023/02/07 04:43:59;;;;;;;53.47;24.43;;;-2.10;99.90;;;;;;4973622;28;20201;-75
2023/02/07 04:46:27;;;;;;;57.90;23.63;;;-2.20;99.90;;;;;;4973664;28;20217;-73
2023/02/07 04:48:54;;;;;;;48.43;23.07;;;-2.10;99.90;;;;;;4989152;28;20227;-74
2023/02/07 04:51:21;;;;;;;60.43;23.80;;;-2.00;99.90;;;;;;4988585;28;20281;-74
2023/02/07 04:53:48;;;;;;;54.47;23.67;;;-2.10;99.90;;;;;;4939704;28;20219;-73
2023/02/07 04:56:14;;;;;;;53.50;22.87;;;-2.10;99.90;;;;;;4988774;28;20211;-73
2023/02/07 04:58:41;;;;;;;53.63;23.27;;;-2.10;99.90;;;;;;4956023;28;20187;-73
2023/02/07 05:01:08;;;;;;;51.00;23.50;;;-2.10;99.90;;;;;;4988172;28;20194;-71
2023/02/07 05:03:35;;;;;;;48.60;22.53;;;-2.00;99.90;;;;;;4975087;28;20195;-70
2023/02/07 05:06:02;;;;;;;50.37;23.43;;;-2.10;99.90;;;;;;4959387;28;20630;-73
2023/02/07 05:08:29;;;;;;;48.97;22.20;;;-2.00;99.90;;;;;;4959595;28;20214;-72
2023/02/07 05:10:56;;;;;;;51.30;23.30;;;-2.00;99.90;;;;;;4976753;28;20254;-73
2023/02/07 05:13:24;;;;;;;49.87;21.73;;;-2.00;99.90;;;;;;4977034;28;20201;-73
2023/02/07 05:15:50;;;;;;;53.77;22.67;;;-2.10;99.90;;;;;;4959804;28;20210;-73
2023/02/07 05:18:17;;;;;;;51.10;22.00;;;-2.00;99.90;;;;;;4959961;28;20209;-72
2023/02/07 05:20:44;;;;;;;45.07;22.03;;;-2.00;99.90;;;;;;4959884;28;20207;-74
2023/02/07 05:23:11;;;;;;;49.33;20.83;;;-2.00;99.90;;;;;;4959615;28;20213;-73
2023/02/07 05:25:41;;;;;;;46.97;21.07;;;-2.00;99.90;;;;;;4959362;28;20246;-74
2023/02/07 05:28:08;;;;;;;46.70;21.53;;;-2.00;99.90;;;;;;4959784;28;20202;-75
2023/02/07 05:30:35;;;;;;;47.90;20.87;;;-2.00;99.90;;;;;;4960014;28;20204;-75
2023/02/07 05:33:02;;;;;;;45.33;20.57;;;-2.00;99.90;;;;;;4977348;28;20562;-73
2023/02/07 05:35:55;;;;;;;43.13;20.60;;;-1.90;99.90;;;;;;4959437;28;20230;-74
2023/02/07 05:38:22;;;;;;;46.10;19.80;;;-1.90;99.90;;;;;;4974937;28;20652;-72
2023/02/07 05:40:49;;;;;;;49.17;21.07;;;-1.90;99.90;;;;;;4959139;28;20210;-74
2023/02/07 05:43:16;;;;;;;47.93;20.30;;;-1.90;99.90;;;;;;4976568;28;20209;-68
2023/02/07 05:45:44;;;;;;;45.63;19.43;;;-1.80;99.90;;;;;;4958706;28;20211;-74
2023/02/07 05:48:12;;;;;;;45.40;19.17;;;-1.80;99.90;;;;;;4959496;28;20204;-73
2023/02/07 05:50:41;;;;;;;43.50;18.57;;;-1.80;99.90;;;;;;4959435;28;20304;-73
2023/02/07 05:53:09;;;;;;;44.57;18.93;;;-1.80;99.90;;;;;;4976415;28;20182;-72
2023/02/07 05:55:36;;;;;;;40.50;18.33;;;-1.70;99.90;;;;;;4975746;28;20715;-72
2023/02/07 05:58:04;;;;;;;41.43;19.00;;;-1.70;99.90;;;;;;4959059;28;20529;-71
2023/02/07 06:00:30;;;;;;;41.67;18.87;;;-1.60;99.90;;;;;;4976203;28;20201;-72
2023/02/07 06:02:57;;;;;;;37.50;17.33;;;-1.60;99.90;;;;;;4958579;28;20209;-72
2023/02/07 06:05:30;;;;;;;37.07;17.53;;;-1.60;99.90;;;;;;4958209;28;20660;-72
2023/02/07 06:07:57;;;;;;;39.93;17.33;;;-1.60;99.90;;;;;;4990990;28;20194;-72
2023/02/07 06:10:24;;;;;;;39.60;16.63;;;-1.60;99.90;;;;;;4958202;28;20207;-70
2023/02/07 06:12:50;;;;;;;39.53;17.67;;;-1.60;99.90;;;;;;4958564;28;20199;-71
2023/02/07 06:15:17;;;;;;;35.27;16.63;;;-1.50;99.90;;;;;;4974436;28;20286;-72
2023/02/07 06:17:44;;;;;;;37.07;16.93;;;-1.50;99.90;;;;;;4990503;28;20534;-71
2023/02/07 06:20:11;;;;;;;34.30;16.20;;;-1.50;99.90;;;;;;4942104;28;20207;-73
2023/02/07 06:22:38;;;;;;;37.83;15.37;;;-1.40;99.90;;;;;;4958202;28;20197;-71
2023/02/07 06:25:10;;;;;;;31.30;15.47;;;-1.40;99.90;;;;;;4975519;28;20234;-70
2023/02/07 06:27:40;;;;;;;33.90;15.37;;;-1.30;99.90;;;;;;4989554;28;20648;-71
2023/02/07 06:30:09;;;;;;;31.83;14.37;;;-1.30;99.90;;;;;;4962683;28;20198;-70
2023/02/07 06:32:36;;;;;;;32.47;14.80;;;-1.30;99.90;;;;;;4975397;28;20182;-70
2023/02/07 06:35:04;;;;;;;28.23;14.80;;;-1.30;99.90;;;;;;4975127;28;20224;-71
2023/02/07 06:37:30;;;;;;;30.17;14.67;;;-1.30;99.90;;;;;;4973858;28;20204;-71
2023/02/07 06:39:57;;;;;;;29.37;14.27;;;-1.20;99.90;;;;;;4974274;28;20641;-71
2023/02/07 06:42:24;;;;;;;29.13;14.00;;;-1.20;99.90;;;;;;4974151;28;20206;-67
2023/02/07 06:44:51;;;;;;;30.57;13.87;;;-1.10;99.90;;;;;;4973686;28;20298;-68
2023/02/07 06:47:19;;;;;;;27.67;13.70;;;-1.10;99.90;;;;;;4989917;28;20211;-73
2023/02/07 06:49:46;;;;;;;31.37;14.40;;;-1.10;99.90;;;;;;4974998;28;20262;-68
2023/02/07 06:52:13;;;;;;;28.43;14.17;;;-1.10;99.90;;;;;;4974898;28;20201;-72
2023/02/07 06:54:40;;;;;;;26.37;13.17;;;-1.00;99.90;;;;;;4966473;28;20224;-71
2023/02/07 06:57:07;;;;;;;27.50;13.53;;;-1.00;99.90;;;;;;4938710;29;20205;-70
2023/02/07 06:59:34;;;;;;;32.00;13.30;;;-1.00;99.90;;;;;;4970527;28;20211;-71
2023/02/07 07:02:02;;;;;;;27.97;13.37;;;-1.00;99.90;;;;;;4938445;29;20201;-71
2023/02/07 07:04:30;;;;;;;26.60;13.20;;;-1.00;99.90;;;;;;4948033;28;20239;-68
2023/02/07 07:06:57;;;;;;;25.97;12.80;;;-1.00;99.90;;;;;;4973507;28;20236;-67
2023/02/07 07:09:24;;;;;;;25.00;12.80;;;-0.90;99.90;;;;;;4974197;28;20207;-70
2023/02/07 07:11:51;;;;;;;26.67;12.70;;;-0.90;99.90;;;;;;4973577;28;20632;-70
2023/02/07 07:14:18;;;;;;;27.47;12.40;;;-1.00;99.90;;;;;;4966300;28;20197;-72
2023/02/07 07:16:45;;;;;;;28.40;12.83;;;-0.90;99.90;;;;;;4989459;28;20200;-72
2023/02/07 07:19:12;;;;;;;26.17;12.90;;;-0.80;99.90;;;;;;4973470;28;20207;-73
2023/02/07 07:21:39;;;;;;;28.50;12.87;;;-0.80;99.90;;;;;;4956969;28;20304;-73
2023/02/07 07:24:06;;;;;;;27.00;12.37;;;-0.70;99.90;;;;;;4974342;28;20286;-74
2023/02/07 07:26:33;;;;;;;23.73;12.50;;;-0.70;99.90;;;;;;4989479;28;20635;-73
2023/02/07 07:29:15;;;;;;;27.03;13.27;;;-0.70;99.90;;;;;;4989321;28;20212;-73
2023/02/07 07:31:41;;;;;;;26.20;13.60;;;-0.50;99.90;;;;;;4989612;28;20209;-71
2023/02/07 07:34:09;;;;;;;27.67;13.60;;;-0.40;99.90;;;;;;4956723;28;20259;-73
2023/02/07 07:36:36;;;;;;;27.80;13.70;;;-0.40;99.90;;;;;;4968600;28;20201;-74
2023/02/07 07:39:04;;;;;;;28.07;13.33;;;-0.50;99.90;;;;;;4974405;28;20196;-75
2023/02/07 07:41:30;;;;;;;32.63;14.17;;;-0.50;99.90;;;;;;4973208;28;20658;-75
2023/02/07 07:43:57;;;;;;;29.57;14.23;;;-0.50;99.90;;;;;;4972760;28;20206;-74
2023/02/07 07:46:24;;;;;;;27.60;14.03;;;-0.60;99.90;;;;;;4973168;28;20208;-74
2023/02/07 07:48:51;;;;;;;29.37;14.23;;;-0.70;99.90;;;;;;4972827;28;20206;-71
2023/02/07 07:51:18;;;;;;;31.20;14.23;;;-0.60;99.90;;;;;;4972864;28;20202;-72
2023/02/07 07:53:45;;;;;;;30.00;14.37;;;-0.80;99.90;;;;;;4973097;28;20545;-71
2023/02/07 07:56:12;;;;;;;31.97;14.23;;;-0.80;99.90;;;;;;4972458;28;20717;-72
2023/02/07 07:58:39;;;;;;;33.30;14.77;;;-0.80;99.90;;;;;;4972776;28;20218;-72
2023/02/07 08:01:08;;;;;;;28.03;14.20;;;-0.70;99.90;;;;;;4972615;28;20723;-71
2023/02/07 08:03:34;;;;;;;29.23;14.80;;;-0.70;99.90;;;;;;4972467;28;20209;-72
2023/02/07 08:06:01;;;;;;;29.30;14.33;;;-0.50;99.90;;;;;;4972067;28;20257;-71
2023/02/07 08:08:28;;;;;;;28.20;13.40;;;-0.40;99.90;;;;;;4972699;28;20193;-72
2023/02/07 08:11:00;;;;;;;31.23;14.43;;;-0.40;99.90;;;;;;4972781;28;20218;-72
2023/02/07 08:13:27;;;;;;;29.57;14.23;;;-0.40;99.90;;;;;;4972631;28;20212;-70
2023/02/07 08:15:58;;;;;;;29.37;14.23;;;-0.40;99.90;;;;;;4972418;28;20318;-72
2023/02/07 08:18:25;;;;;;;30.73;14.17;;;-0.40;99.90;;;;;;4972318;28;20228;-71
2023/02/07 08:20:52;;;;;;;29.47;13.60;;;-0.40;99.90;;;;;;4972757;28;20206;-72
2023/02/07 08:23:18;;;;;;;27.97;13.80;;;-0.40;99.90;;;;;;4972636;28;20214;-73
2023/02/07 08:25:45;;;;;;;30.33;13.30;;;-0.40;99.90;;;;;;4973317;28;20198;-71
2023/02/07 08:28:13;;;;;;;26.50;13.83;;;-0.30;99.90;;;;;;4973711;28;20196;-73
2023/02/07 08:30:40;;;;;;;31.80;14.83;;;-0.20;99.90;;;;;;4973618;28;20276;-68
2023/02/07 08:33:07;;;;;;;26.23;13.83;;;-0.40;99.90;;;;;;4972076;28;20189;-67
2023/02/07 08:35:35;;;;;;;28.60;13.60;;;-0.50;99.90;;;;;;4971969;28;20236;-75
2023/02/07 08:38:02;;;;;;;29.07;13.83;;;-0.40;99.90;;;;;;4961673;28;20205;-68
2023/02/07 08:40:29;;;;;;;27.67;13.93;;;-0.40;99.90;;;;;;4973446;28;20198;-69
2023/02/07 08:42:55;;;;;;;27.57;13.00;;;-0.40;99.90;;;;;;4973498;28;20207;-71
2023/02/07 08:45:22;;;;;;;30.13;13.23;;;-0.30;99.90;;;;;;4956011;28;20256;-73
2023/02/07 08:47:49;;;;;;;27.97;13.53;;;-0.20;99.90;;;;;;4973213;28;20279;-71
2023/02/07 08:50:17;;;;;;;30.43;12.17;;;-0.20;99.90;;;;;;4973313;28;20193;-72
2023/02/07 08:52:44;;;;;;;29.67;13.40;;;-0.20;99.90;;;;;;4973371;28;20189;-72
2023/02/07 08:55:11;;;;;;;29.30;13.23;;;-0.30;99.90;;;;;;4955569;28;20222;-73
2023/02/07 08:57:38;;;;;;;27.80;13.60;;;-0.30;99.90;;;;;;4956137;28;20200;-73
2023/02/07 09:00:06;;;;;;;28.07;13.90;;;-0.20;99.90;;;;;;4988329;28;20208;-73
2023/02/07 09:02:33;;;;;;;25.50;12.50;;;-0.20;99.90;;;;;;4955929;28;20204;-75
2023/02/07 09:05:01;;;;;;;28.93;12.87;;;-0.10;99.90;;;;;;4955677;28;20363;-71
2023/02/07 09:07:28;;;;;;;30.90;13.93;;;-0.10;99.90;;;;;;4973424;28;20229;-72
2023/02/07 09:09:55;;;;;;;29.70;14.20;;;0.00;99.90;;;;;;4956344;28;20289;-74
2023/02/07 09:12:21;;;;;;;26.57;12.97;;;0.20;99.90;;;;;;4956251;28;20216;-67
2023/02/07 09:14:48;;;;;;;26.50;13.67;;;0.30;99.90;;;;;;4973041;28;20200;-69
2023/02/07 09:17:15;;;;;;;26.67;13.80;;;0.20;99.90;;;;;;4972885;28;20232;-67
2023/02/07 09:19:42;;;;;;;27.57;13.17;;;0.10;99.90;;;;;;4956182;28;20219;-67
2023/02/07 09:22:09;;;;;;;29.50;14.10;;;0.00;99.90;;;;;;4955966;28;20216;-67
2023/02/07 09:24:36;;;;;;;28.63;13.87;;;0.10;99.90;;;;;;4972987;28;20198;-67
2023/02/07 09:27:03;;;;;;;28.03;13.27;;;0.20;99.90;;;;;;4955849;28;20390;-66
2023/02/07 09:29:29;;;;;;;27.27;13.17;;;0.20;99.90;;;;;;4955548;28;20200;-68
2023/02/07 09:31:56;;;;;;;31.10;13.60;;;0.30;99.90;;;;;;4972843;28;20208;-66
2023/02/07 09:34:24;;;;;;;25.47;12.93;;;0.20;99.90;;;;;;4955837;28;20554;-66
2023/02/07 09:36:50;;;;;;;25.20;12.57;;;0.20;99.90;;;;;;4955442;28;20221;-67
2023/02/07 09:39:18;;;;;;;24.53;12.30;;;0.40;99.90;;;;;;4973015;28;20651;-66
2023/02/07 09:41:54;;;;;;;30.20;13.33;;;0.40;99.90;;;;;;4988009;28;20205;-66
2023/02/07 09:44:50;;;;;;;26.43;12.53;;;0.60;99.90;;;;;;4955615;28;20211;-73
2023/02/07 09:47:23;;;;;;;24.40;12.57;;;0.70;99.90;;;;;;4975311;28;20511;-67
2023/02/07 09:49:58;;;;;;;26.33;12.20;;;0.70;99.90;;;;;;4976305;28;20209;-71
2023/02/07 09:52:37;;;;;;;24.17;13.07;;;0.80;99.90;;;;;;4944886;28;20215;-74
2023/02/07 09:55:05;;;;;;;24.97;11.80;;;0.60;99.90;;;;;;4975960;28;20282;-73
2023/02/07 09:57:45;;;;;;;27.20;12.47;;;0.50;99.90;;;;;;4958398;28;20298;-73
2023/02/07 10:00:25;;;;;;;25.67;12.10;;;0.40;99.90;;;;;;4991675;28;20208;-73
2023/02/07 10:03:12;;;;;;;22.73;12.33;;;0.50;99.90;;;;;;4958843;28;20259;-73
2023/02/07 10:05:50;;;;;;;25.07;12.27;;;0.70;99.90;;;;;;4958364;28;20244;-70
2023/02/07 10:08:18;;;;;;;23.60;11.50;;;0.50;99.90;;;;;;4975954;28;20200;-72
2023/02/07 10:11:16;;;;;;;28.03;12.17;;;0.40;99.90;;;;;;4976121;28;20193;-71
2023/02/07 10:14:08;;;;;;;23.27;11.93;;;0.40;99.90;;;;;;4919274;29;20207;-70
2023/02/07 10:17:04;;;;;;;26.63;12.87;;;0.50;99.90;;;;;;4934916;29;20559;-70
2023/02/07 10:19:41;;;;;;;26.67;11.47;;;0.40;99.90;;;;;;4935309;29;20190;-72
2023/02/07 10:22:34;;;;;;;25.37;11.80;;;0.50;99.90;;;;;;4935194;29;20194;-73
2023/02/07 10:25:32;;;;;;;25.30;11.80;;;0.50;99.90;;;;;;4933033;29;20203;-71
2023/02/07 10:28:21;;;;;;;19.93;10.50;;;0.40;99.90;;;;;;4844500;29;20269;-72
2023/02/07 10:30:53;;;;;;;25.47;11.83;;;0.40;99.90;;;;;;4859595;29;20231;-71
2023/02/07 10:33:27;;;;;;;22.70;11.30;;;0.40;99.90;;;;;;4859854;29;20194;-70
2023/02/07 10:35:55;;;;;;;20.97;10.57;;;0.50;99.90;;;;;;4859138;29;20233;-73
2023/02/07 10:38:41;;;;;;;22.27;11.17;;;0.60;99.90;;;;;;4844509;29;20200;-73
2023/02/07 10:41:24;;;;;;;21.40;11.30;;;0.60;99.90;;;;;;4844365;29;20205;-71
2023/02/07 10:43:51;;;;;;;21.17;11.20;;;0.60;99.90;;;;;;4844162;29;20563;-72
2023/02/07 10:46:21;;;;;;;21.43;10.73;;;0.70;99.90;;;;;;4843872;29;20217;-74
2023/02/07 10:48:48;;;;;;;21.37;11.10;;;0.80;99.90;;;;;;4859624;29;20224;-72
2023/02/07 10:51:26;;;;;;;21.40;10.80;;;0.90;99.90;;;;;;4844371;29;20212;-71
2023/02/07 10:54:01;;;;;;;22.23;10.60;;;1.00;99.90;;;;;;4865776;29;20211;-69
2023/02/07 10:56:32;;;;;;;23.00;10.87;;;0.80;99.90;;;;;;4896711;29;20230;-73
2023/02/07 10:58:59;;;;;;;20.67;10.43;;;0.70;99.90;;;;;;4880869;29;20212;-72
2023/02/07 11:01:29;;;;;;;22.13;10.97;;;0.90;99.90;;;;;;4896248;29;20293;-74
2023/02/07 11:03:57;;;;;;;20.67;10.27;;;1.10;99.90;;;;;;4917231;28;20235;-72
2023/02/07 11:06:24;;;;;;;21.37;10.50;;;1.10;99.90;;;;;;4934785;29;20249;-72
2023/02/07 11:09:10;;;;;;;23.43;11.10;;;0.90;99.90;;;;;;4951634;29;20197;-73
2023/02/07 11:11:39;;;;;;;22.07;10.70;;;0.70;99.90;;;;;;4934817;29;20197;-73
2023/02/07 11:14:14;;;;;;;20.47;10.37;;;0.80;99.90;;;;;;4936629;29;20198;-73
2023/02/07 11:16:43;;;;;;;21.60;10.17;;;1.00;99.90;;;;;;4951388;28;20236;-73
2023/02/07 11:19:17;;;;;;;21.37;10.70;;;1.10;99.90;;;;;;4951112;29;20195;-72
2023/02/07 11:21:47;;;;;;;21.93;10.40;;;0.90;99.90;;;;;;4935556;29;20660;-72
2023/02/07 11:24:34;;;;;;;20.80;10.60;;;0.90;99.90;;;;;;4951573;29;20213;-72
2023/02/07 11:27:04;;;;;;;21.47;11.20;;;0.80;99.90;;;;;;4936527;29;20217;-73
2023/02/07 11:29:43;;;;;;;23.53;10.67;;;1.00;99.90;;;;;;4951004;29;20201;-74
2023/02/07 11:32:13;;;;;;;23.60;10.83;;;1.00;99.90;;;;;;4936319;29;20215;-74
2023/02/07 11:34:46;;;;;;;25.20;10.73;;;1.00;99.90;;;;;;4950602;29;20548;-72
2023/02/07 11:37:16;;;;;;;23.60;10.83;;;1.10;99.90;;;;;;4934779;29;20233;-73
2023/02/07 11:39:44;;;;;;;24.07;10.77;;;1.10;99.90;;;;;;4935495;29;20238;-73
2023/02/07 11:42:14;;;;;;;20.80;10.60;;;1.20;99.90;;;;;;4950536;28;20222;-74
2023/02/07 11:44:42;;;;;;;21.80;10.83;;;1.30;99.90;;;;;;4950957;29;20198;-75
2023/02/07 11:47:15;;;;;;;22.97;10.80;;;1.20;99.90;;;;;;4951029;29;20202;-75
2023/02/07 11:49:46;;;;;;;25.10;12.17;;;1.10;99.90;;;;;;4950831;28;20647;-74
2023/02/07 11:52:14;;;;;;;24.50;11.97;;;1.10;99.90;;;;;;4935043;29;20194;-75
2023/02/07 11:54:47;;;;;;;21.20;11.20;;;1.20;99.90;;;;;;4934641;28;20209;-72
2023/02/07 11:57:16;;;;;;;21.47;11.43;;;1.50;99.90;;;;;;4950768;28;20222;-74
2023/02/07 11:59:46;;;;;;;22.10;11.70;;;1.80;99.90;;;;;;4950287;28;20190;-73
2023/02/07 12:02:21;;;;;;;23.80;10.67;;;1.80;99.90;;;;;;4950396;28;20205;-71
2023/02/07 12:04:50;;;;;;;21.33;10.53;;;1.70;99.90;;;;;;4962153;28;20545;-71
2023/02/07 12:07:37;;;;;;;21.77;10.33;;;1.60;99.90;;;;;;4946031;28;20581;-71
2023/02/07 12:10:30;;;;;;;22.80;10.83;;;1.70;99.90;;;;;;4959011;28;20199;-71
2023/02/07 12:13:18;;;;;;;23.00;9.87;;;1.70;99.90;;;;;;4960868;28;20191;-66
2023/02/07 12:15:51;;;;;;;21.97;10.23;;;1.70;99.90;;;;;;4967802;28;20250;-69
2023/02/07 12:18:32;;;;;;;18.63;9.80;;;1.80;99.90;;;;;;4950345;28;20191;-68
2023/02/07 12:21:15;;;;;;;18.53;9.70;;;1.70;99.90;;;;;;4950994;28;20208;-72
2023/02/07 12:23:56;;;;;;;21.17;10.30;;;1.40;99.90;;;;;;4950374;28;20206;-70
2023/02/07 12:26:37;;;;;;;22.57;10.97;;;1.40;99.90;;;;;;4952004;28;20201;-70
2023/02/07 12:29:32;;;;;;;19.50;10.20;;;1.30;99.90;;;;;;4951904;29;20289;-72
2023/02/07 12:32:23;;;;;;;21.77;10.47;;;1.40;99.90;;;;;;4952736;29;20197;-75
2023/02/07 12:35:12;;;;;;;21.87;10.37;;;1.50;99.90;;;;;;4965588;28;20205;-71
2023/02/07 12:38:18;;;;;;;18.07;10.40;;;1.30;99.90;;;;;;4966892;28;20235;-72
2023/02/07 12:41:06;;;;;;;20.13;10.33;;;1.20;99.90;;;;;;4952834;29;20198;-70
2023/02/07 12:43:37;;;;;;;23.90;10.43;;;1.30;99.90;;;;;;4968907;28;20190;-68
2023/02/07 12:46:41;;;;;;;20.27;10.50;;;1.20;99.90;;;;;;4969036;28;20245;-68
2023/02/07 12:49:36;;;;;;;18.53;9.90;;;1.30;99.90;;;;;;4913733;29;20218;-71
2023/02/07 12:52:33;;;;;;;21.23;10.57;;;1.30;99.90;;;;;;4897872;29;20640;-71